sensor_id;sensor_type;location;lat;lon;timestamp;temperature;humidity
12827;DHT22;66927;48.812;9.118;2023-07-09T00:00:47;26.10;86.60
12827;DHT22;66927;48.812;9.118;2023-07-09T00:03:14;26.10;87.00
12827;DHT22;66927;48.812;9.118;2023-07-09T00:05:40;26.10;87.10
12827;DHT22;66927;48.812;9.118;2023-07-09T00:08:29;26.10;87.20
12827;DHT22;66927;48.812;9.118;2023-07-09T00:10:56;26.00;87.50
12827;DHT22;66927;48.812;9.118;2023-07-09T00:13:23;26.00;87.40
12827;DHT22;66927;48.812;9.118;2023-07-09T00:15:50;25.90;87.00
12827;DHT22;66927;48.812;9.118;2023-07-09T00:18:16;25.90;87.20
12827;DHT22;66927;48.812;9.118;2023-07-09T00:20:42;25.90;87.40
12827;DHT22;66927;48.812;9.118;2023-07-09T00:23:09;25.90;87.30
12827;DHT22;66927;48.812;9.118;2023-07-09T00:25:45;25.90;87.50
12827;DHT22;66927;48.812;9.118;2023-07-09T00:28:15;25.80;87.70
12827;DHT22;66927;48.812;9.118;2023-07-09T00:30:41;25.70;88.00
12827;DHT22;66927;48.812;9.118;2023-07-09T00:33:17;25.80;88.00
12827;DHT22;66927;48.812;9.118;2023-07-09T00:35:47;25.70;88.20
12827;DHT22;66927;48.812;9.118;2023-07-09T00:38:23;25.70;87.90
12827;DHT22;66927;48.812;9.118;2023-07-09T00:41:06;25.70;87.70
12827;DHT22;66927;48.812;9.118;2023-07-09T00:43:36;25.70;87.80
12827;DHT22;66927;48.812;9.118;2023-07-09T00:49:08;25.60;88.20
12827;DHT22;66927;48.812;9.118;2023-07-09T00:51:40;25.60;88.50
12827;DHT22;66927;48.812;9.118;2023-07-09T00:54:13;25.50;88.40
12827;DHT22;66927;48.812;9.118;2023-07-09T00:56:45;25.50;88.60
12827;DHT22;66927;48.812;9.118;2023-07-09T00:59:14;25.50;88.80
12827;DHT22;66927;48.812;9.118;2023-07-09T01:01:41;25.40;88.40
12827;DHT22;66927;48.812;9.118;2023-07-09T01:04:09;25.40;88.30
12827;DHT22;66927;48.812;9.118;2023-07-09T01:06:39;25.40;88.50
12827;DHT22;66927;48.812;9.118;2023-07-09T01:09:07;25.40;88.70
12827;DHT22;66927;48.812;9.118;2023-07-09T01:11:33;25.40;88.60
12827;DHT22;66927;48.812;9.118;2023-07-09T01:14:01;25.30;88.80
12827;DHT22;66927;48.812;9.118;2023-07-09T01:16:31;25.30;88.80
12827;DHT22;66927;48.812;9.118;2023-07-09T01:18:57;25.30;89.00
12827;DHT22;66927;48.812;9.118;2023-07-09T01:21:23;25.40;89.20
12827;DHT22;66927;48.812;9.118;2023-07-09T01:23:49;25.40;89.30
12827;DHT22;66927;48.812;9.118;2023-07-09T01:26:24;25.40;89.30
12827;DHT22;66927;48.812;9.118;2023-07-09T01:28:54;25.40;89.50
12827;DHT22;66927;48.812;9.118;2023-07-09T01:31:20;25.30;89.50
12827;DHT22;66927;48.812;9.118;2023-07-09T01:33:46;25.20;89.00
12827;DHT22;66927;48.812;9.118;2023-07-09T01:36:17;25.30;89.40
12827;DHT22;66927;48.812;9.118;2023-07-09T01:38:44;25.20;89.10
12827;DHT22;66927;48.812;9.118;2023-07-09T01:41:10;25.20;89.50
12827;DHT22;66927;48.812;9.118;2023-07-09T01:43:39;25.20;89.60
12827;DHT22;66927;48.812;9.118;2023-07-09T01:46:07;25.20;89.90
12827;DHT22;66927;48.812;9.118;2023-07-09T01:48:32;25.20;90.00
12827;DHT22;66927;48.812;9.118;2023-07-09T01:51:07;25.10;90.10
12827;DHT22;66927;48.812;9.118;2023-07-09T01:53:33;25.10;90.20
12827;DHT22;66927;48.812;9.118;2023-07-09T01:56:02;25.00;90.20
12827;DHT22;66927;48.812;9.118;2023-07-09T01:58:28;25.00;90.10
12827;DHT22;66927;48.812;9.118;2023-07-09T02:00:56;25.00;90.10
12827;DHT22;66927;48.812;9.118;2023-07-09T02:03:21;25.00;90.10
12827;DHT22;66927;48.812;9.118;2023-07-09T02:05:53;25.00;90.20
12827;DHT22;66927;48.812;9.118;2023-07-09T02:08:19;24.90;90.30
12827;DHT22;66927;48.812;9.118;2023-07-09T02:10:48;24.90;90.40
12827;DHT22;66927;48.812;9.118;2023-07-09T02:13:13;24.90;90.40
12827;DHT22;66927;48.812;9.118;2023-07-09T02:15:39;24.90;90.40
12827;DHT22;66927;48.812;9.118;2023-07-09T02:18:09;24.80;90.60
12827;DHT22;66927;48.812;9.118;2023-07-09T02:20:35;24.80;90.70
12827;DHT22;66927;48.812;9.118;2023-07-09T02:23:02;24.70;90.80
12827;DHT22;66927;48.812;9.118;2023-07-09T02:25:27;24.70;90.80
12827;DHT22;66927;48.812;9.118;2023-07-09T02:27:53;24.70;90.90
12827;DHT22;66927;48.812;9.118;2023-07-09T02:30:19;24.70;90.90
12827;DHT22;66927;48.812;9.118;2023-07-09T02:32:44;24.70;91.00
12827;DHT22;66927;48.812;9.118;2023-07-09T02:35:10;24.70;91.00
12827;DHT22;66927;48.812;9.118;2023-07-09T02:37:36;24.70;91.00
12827;DHT22;66927;48.812;9.118;2023-07-09T02:40:04;24.60;91.00
12827;DHT22;66927;48.812;9.118;2023-07-09T02:42:30;24.70;91.00
12827;DHT22;66927;48.812;9.118;2023-07-09T02:44:55;24.70;91.10
12827;DHT22;66927;48.812;9.118;2023-07-09T02:47:21;24.60;91.00
12827;DHT22;66927;48.812;9.118;2023-07-09T02:49:47;24.60;90.90
12827;DHT22;66927;48.812;9.118;2023-07-09T02:52:13;24.60;91.00
12827;DHT22;66927;48.812;9.118;2023-07-09T02:54:39;24.60;91.10
12827;DHT22;66927;48.812;9.118;2023-07-09T02:57:05;24.50;91.10
12827;DHT22;66927;48.812;9.118;2023-07-09T02:59:31;24.50;91.20
12827;DHT22;66927;48.812;9.118;2023-07-09T03:01:59;24.50;91.20
12827;DHT22;66927;48.812;9.118;2023-07-09T03:04:25;24.50;91.20
12827;DHT22;66927;48.812;9.118;2023-07-09T03:06:51;24.50;91.20
12827;DHT22;66927;48.812;9.118;2023-07-09T03:09:18;24.50;91.20
12827;DHT22;66927;48.812;9.118;2023-07-09T03:11:43;24.50;91.10
12827;DHT22;66927;48.812;9.118;2023-07-09T03:14:09;24.40;91.10
12827;DHT22;66927;48.812;9.118;2023-07-09T03:16:35;24.40;91.20
12827;DHT22;66927;48.812;9.118;2023-07-09T03:19:01;24.40;91.20
12827;DHT22;66927;48.812;9.118;2023-07-09T03:21:28;24.40;91.40
12827;DHT22;66927;48.812;9.118;2023-07-09T03:23:55;24.30;91.30
12827;DHT22;66927;48.812;9.118;2023-07-09T03:26:21;24.30;91.30
12827;DHT22;66927;48.812;9.118;2023-07-09T03:28:47;24.30;91.40
12827;DHT22;66927;48.812;9.118;2023-07-09T03:31:13;24.30;91.30
12827;DHT22;66927;48.812;9.118;2023-07-09T03:33:38;24.30;91.40
12827;DHT22;66927;48.812;9.118;2023-07-09T03:36:05;24.30;91.40
12827;DHT22;66927;48.812;9.118;2023-07-09T03:38:31;24.30;91.40
12827;DHT22;66927;48.812;9.118;2023-07-09T03:40:57;24.30;91.50
12827;DHT22;66927;48.812;9.118;2023-07-09T03:43:23;24.20;91.60
12827;DHT22;66927;48.812;9.118;2023-07-09T03:45:50;24.20;91.70
12827;DHT22;66927;48.812;9.118;2023-07-09T03:48:18;24.20;91.80
12827;DHT22;66927;48.812;9.118;2023-07-09T03:50:45;24.10;91.80
12827;DHT22;66927;48.812;9.118;2023-07-09T03:53:11;24.10;91.80
12827;DHT22;66927;48.812;9.118;2023-07-09T03:55:37;24.10;91.80
12827;DHT22;66927;48.812;9.118;2023-07-09T03:58:03;24.10;91.90
12827;DHT22;66927;48.812;9.118;2023-07-09T04:00:30;24.10;91.90
12827;DHT22;66927;48.812;9.118;2023-07-09T04:02:56;24.10;92.00
12827;DHT22;66927;48.812;9.118;2023-07-09T04:05:26;24.10;92.00
12827;DHT22;66927;48.812;9.118;2023-07-09T04:07:53;24.10;92.00
12827;DHT22;66927;48.812;9.118;2023-07-09T04:10:19;24.10;92.00
12827;DHT22;66927;48.812;9.118;2023-07-09T04:12:45;24.00;92.00
12827;DHT22;66927;48.812;9.118;2023-07-09T04:15:12;24.00;92.00
12827;DHT22;66927;48.812;9.118;2023-07-09T04:17:41;24.00;92.10
12827;DHT22;66927;48.812;9.118;2023-07-09T04:20:08;24.00;92.10
12827;DHT22;66927;48.812;9.118;2023-07-09T04:22:35;24.00;92.30
12827;DHT22;66927;48.812;9.118;2023-07-09T04:25:01;24.00;92.30
12827;DHT22;66927;48.812;9.118;2023-07-09T04:27:29;24.00;92.30
12827;DHT22;66927;48.812;9.118;2023-07-09T04:29:54;24.00;92.30
12827;DHT22;66927;48.812;9.118;2023-07-09T04:32:20;24.00;92.40
12827;DHT22;66927;48.812;9.118;2023-07-09T04:34:46;24.00;92.50
12827;DHT22;66927;48.812;9.118;2023-07-09T04:37:13;24.00;92.70
12827;DHT22;66927;48.812;9.118;2023-07-09T04:39:39;24.00;92.60
12827;DHT22;66927;48.812;9.118;2023-07-09T04:42:06;24.00;92.80
12827;DHT22;66927;48.812;9.118;2023-07-09T04:44:36;24.00;93.00
12827;DHT22;66927;48.812;9.118;2023-07-09T04:47:01;24.00;93.10
12827;DHT22;66927;48.812;9.118;2023-07-09T04:49:27;24.00;93.10
12827;DHT22;66927;48.812;9.118;2023-07-09T04:51:53;24.00;93.00
12827;DHT22;66927;48.812;9.118;2023-07-09T04:54:22;24.00;92.90
12827;DHT22;66927;48.812;9.118;2023-07-09T04:56:48;23.90;92.90
12827;DHT22;66927;48.812;9.118;2023-07-09T04:59:14;24.00;93.10
12827;DHT22;66927;48.812;9.118;2023-07-09T05:01:41;24.00;93.60
12827;DHT22;66927;48.812;9.118;2023-07-09T05:04:06;24.10;93.30
12827;DHT22;66927;48.812;9.118;2023-07-09T05:06:33;24.10;93.30
12827;DHT22;66927;48.812;9.118;2023-07-09T05:08:58;24.10;93.20
12827;DHT22;66927;48.812;9.118;2023-07-09T05:11:24;24.10;93.20
12827;DHT22;66927;48.812;9.118;2023-07-09T05:13:50;24.10;93.20
12827;DHT22;66927;48.812;9.118;2023-07-09T05:16:15;24.10;93.30
12827;DHT22;66927;48.812;9.118;2023-07-09T05:18:42;24.10;93.40
12827;DHT22;66927;48.812;9.118;2023-07-09T05:21:08;24.10;93.40
12827;DHT22;66927;48.812;9.118;2023-07-09T05:23:34;24.10;93.30
12827;DHT22;66927;48.812;9.118;2023-07-09T05:26:01;24.10;93.30
12827;DHT22;66927;48.812;9.118;2023-07-09T05:28:28;24.10;93.30
12827;DHT22;66927;48.812;9.118;2023-07-09T05:30:54;24.20;93.40
12827;DHT22;66927;48.812;9.118;2023-07-09T05:33:19;24.20;93.40
12827;DHT22;66927;48.812;9.118;2023-07-09T05:35:45;24.30;93.40
12827;DHT22;66927;48.812;9.118;2023-07-09T05:38:14;24.30;93.50
12827;DHT22;66927;48.812;9.118;2023-07-09T05:40:42;24.30;93.50
12827;DHT22;66927;48.812;9.118;2023-07-09T05:43:10;24.30;93.50
12827;DHT22;66927;48.812;9.118;2023-07-09T05:45:38;24.30;93.60
12827;DHT22;66927;48.812;9.118;2023-07-09T05:48:04;24.30;93.70
12827;DHT22;66927;48.812;9.118;2023-07-09T05:50:33;24.40;93.80
12827;DHT22;66927;48.812;9.118;2023-07-09T05:52:59;24.40;93.80
12827;DHT22;66927;48.812;9.118;2023-07-09T05:55:25;24.40;93.80
12827;DHT22;66927;48.812;9.118;2023-07-09T05:57:53;24.40;93.90
12827;DHT22;66927;48.812;9.118;2023-07-09T06:00:19;24.40;94.00
12827;DHT22;66927;48.812;9.118;2023-07-09T06:02:45;24.40;94.00
12827;DHT22;66927;48.812;9.118;2023-07-09T06:05:11;24.50;94.00
12827;DHT22;66927;48.812;9.118;2023-07-09T06:07:38;24.50;94.00
12827;DHT22;66927;48.812;9.118;2023-07-09T06:10:08;24.50;94.00
12827;DHT22;66927;48.812;9.118;2023-07-09T06:12:34;24.60;94.00
12827;DHT22;66927;48.812;9.118;2023-07-09T06:15:00;24.60;93.80
12827;DHT22;66927;48.812;9.118;2023-07-09T06:17:26;24.60;93.80
12827;DHT22;66927;48.812;9.118;2023-07-09T06:19:51;24.70;93.90
12827;DHT22;66927;48.812;9.118;2023-07-09T06:22:17;24.70;94.00
12827;DHT22;66927;48.812;9.118;2023-07-09T06:24:44;24.70;94.00
12827;DHT22;66927;48.812;9.118;2023-07-09T06:27:10;24.70;94.00
12827;DHT22;66927;48.812;9.118;2023-07-09T06:29:35;24.70;94.00
12827;DHT22;66927;48.812;9.118;2023-07-09T06:32:01;24.80;94.10
12827;DHT22;66927;48.812;9.118;2023-07-09T06:34:27;24.80;94.10
12827;DHT22;66927;48.812;9.118;2023-07-09T06:36:52;24.90;94.20
12827;DHT22;66927;48.812;9.118;2023-07-09T06:39:18;24.90;94.20
12827;DHT22;66927;48.812;9.118;2023-07-09T06:41:45;24.90;94.20
12827;DHT22;66927;48.812;9.118;2023-07-09T06:44:10;24.90;94.30
12827;DHT22;66927;48.812;9.118;2023-07-09T06:46:37;24.90;94.30
12827;DHT22;66927;48.812;9.118;2023-07-09T06:49:03;25.00;94.30
12827;DHT22;66927;48.812;9.118;2023-07-09T06:51:31;25.00;94.30
12827;DHT22;66927;48.812;9.118;2023-07-09T06:53:56;25.00;94.20
12827;DHT22;66927;48.812;9.118;2023-07-09T06:56:23;25.10;94.20
12827;DHT22;66927;48.812;9.118;2023-07-09T06:58:49;25.00;94.10
12827;DHT22;66927;48.812;9.118;2023-07-09T07:01:15;25.10;94.10
12827;DHT22;66927;48.812;9.118;2023-07-09T07:03:40;25.10;94.10
12827;DHT22;66927;48.812;9.118;2023-07-09T07:06:06;25.10;94.00
12827;DHT22;66927;48.812;9.118;2023-07-09T07:08:33;25.20;94.10
12827;DHT22;66927;48.812;9.118;2023-07-09T07:11:01;25.20;94.10
12827;DHT22;66927;48.812;9.118;2023-07-09T07:13:31;25.20;94.00
12827;DHT22;66927;48.812;9.118;2023-07-09T07:15:58;25.20;94.10
12827;DHT22;66927;48.812;9.118;2023-07-09T07:18:24;25.20;93.90
12827;DHT22;66927;48.812;9.118;2023-07-09T07:20:50;25.30;94.00
12827;DHT22;66927;48.812;9.118;2023-07-09T07:23:16;25.30;94.00
12827;DHT22;66927;48.812;9.118;2023-07-09T07:25:45;25.30;94.00
12827;DHT22;66927;48.812;9.118;2023-07-09T07:28:10;25.30;93.90
12827;DHT22;66927;48.812;9.118;2023-07-09T07:30:36;25.30;94.00
12827;DHT22;66927;48.812;9.118;2023-07-09T07:33:02;25.40;94.00
12827;DHT22;66927;48.812;9.118;2023-07-09T07:35:28;25.40;94.10
12827;DHT22;66927;48.812;9.118;2023-07-09T07:37:53;25.40;94.00
12827;DHT22;66927;48.812;9.118;2023-07-09T07:40:19;25.50;94.00
12827;DHT22;66927;48.812;9.118;2023-07-09T07:42:45;25.50;93.80
12827;DHT22;66927;48.812;9.118;2023-07-09T07:45:11;25.60;93.50
12827;DHT22;66927;48.812;9.118;2023-07-09T07:47:37;25.60;93.20
12827;DHT22;66927;48.812;9.118;2023-07-09T07:50:03;25.60;93.10
12827;DHT22;66927;48.812;9.118;2023-07-09T07:52:29;25.70;92.70
12827;DHT22;66927;48.812;9.118;2023-07-09T07:54:54;25.70;92.30
12827;DHT22;66927;48.812;9.118;2023-07-09T07:57:23;25.80;91.60
12827;DHT22;66927;48.812;9.118;2023-07-09T07:59:49;25.90;91.30
12827;DHT22;66927;48.812;9.118;2023-07-09T08:02:15;25.90;91.10
12827;DHT22;66927;48.812;9.118;2023-07-09T08:04:44;25.90;91.10
12827;DHT22;66927;48.812;9.118;2023-07-09T08:07:10;26.00;91.30
12827;DHT22;66927;48.812;9.118;2023-07-09T08:09:36;26.00;91.40
12827;DHT22;66927;48.812;9.118;2023-07-09T08:12:03;26.10;91.20
12827;DHT22;66927;48.812;9.118;2023-07-09T08:14:35;26.10;91.00
12827;DHT22;66927;48.812;9.118;2023-07-09T08:17:01;26.10;91.10
12827;DHT22;66927;48.812;9.118;2023-07-09T08:19:26;26.20;91.10
12827;DHT22;66927;48.812;9.118;2023-07-09T08:21:52;26.20;91.20
12827;DHT22;66927;48.812;9.118;2023-07-09T08:24:18;26.30;91.20
12827;DHT22;66927;48.812;9.118;2023-07-09T08:26:43;26.40;91.30
12827;DHT22;66927;48.812;9.118;2023-07-09T08:29:10;26.40;91.30
12827;DHT22;66927;48.812;9.118;2023-07-09T08:31:35;26.50;91.10
12827;DHT22;66927;48.812;9.118;2023-07-09T08:34:01;26.50;91.10
12827;DHT22;66927;48.812;9.118;2023-07-09T08:36:27;26.60;91.20
12827;DHT22;66927;48.812;9.118;2023-07-09T08:38:53;26.60;91.40
12827;DHT22;66927;48.812;9.118;2023-07-09T08:47:00;26.80;90.80
12827;DHT22;66927;48.812;9.118;2023-07-09T08:49:56;26.80;90.90
12827;DHT22;66927;48.812;9.118;2023-07-09T08:52:44;26.80;91.00
12827;DHT22;66927;48.812;9.118;2023-07-09T08:55:16;26.90;91.30
12827;DHT22;66927;48.812;9.118;2023-07-09T08:57:53;27.00;91.30
12827;DHT22;66927;48.812;9.118;2023-07-09T09:00:29;27.10;91.40
12827;DHT22;66927;48.812;9.118;2023-07-09T09:03:00;27.20;91.10
12827;DHT22;66927;48.812;9.118;2023-07-09T09:05:31;27.20;91.10
12827;DHT22;66927;48.812;9.118;2023-07-09T09:10:50;27.40;90.60
12827;DHT22;66927;48.812;9.118;2023-07-09T09:13:21;27.50;90.50
12827;DHT22;66927;48.812;9.118;2023-07-09T09:15:50;27.60;90.60
12827;DHT22;66927;48.812;9.118;2023-07-09T09:18:26;27.60;90.30
12827;DHT22;66927;48.812;9.118;2023-07-09T09:21:17;27.60;90.10
12827;DHT22;66927;48.812;9.118;2023-07-09T09:23:53;27.60;89.30
12827;DHT22;66927;48.812;9.118;2023-07-09T09:26:33;27.70;89.60
12827;DHT22;66927;48.812;9.118;2023-07-09T09:29:00;27.80;88.90
12827;DHT22;66927;48.812;9.118;2023-07-09T09:31:29;27.90;87.90
12827;DHT22;66927;48.812;9.118;2023-07-09T09:33:55;27.90;88.60
12827;DHT22;66927;48.812;9.118;2023-07-09T09:36:23;27.80;88.90
12827;DHT22;66927;48.812;9.118;2023-07-09T09:38:49;27.90;90.20
12827;DHT22;66927;48.812;9.118;2023-07-09T09:41:30;27.90;89.90
12827;DHT22;66927;48.812;9.118;2023-07-09T09:43:56;28.10;89.10
12827;DHT22;66927;48.812;9.118;2023-07-09T09:46:26;28.20;88.50
12827;DHT22;66927;48.812;9.118;2023-07-09T09:48:59;28.30;87.80
12827;DHT22;66927;48.812;9.118;2023-07-09T09:51:25;28.40;88.30
12827;DHT22;66927;48.812;9.118;2023-07-09T09:53:57;28.50;88.30
12827;DHT22;66927;48.812;9.118;2023-07-09T09:56:29;28.50;87.00
12827;DHT22;66927;48.812;9.118;2023-07-09T09:58:57;28.60;83.40
12827;DHT22;66927;48.812;9.118;2023-07-09T10:01:34;28.60;80.90
12827;DHT22;66927;48.812;9.118;2023-07-09T10:04:04;28.70;81.40
12827;DHT22;66927;48.812;9.118;2023-07-09T10:06:46;28.80;82.30
12827;DHT22;66927;48.812;9.118;2023-07-09T10:15:00;29.10;79.10
12827;DHT22;66927;48.812;9.118;2023-07-09T10:17:39;29.10;79.40
12827;DHT22;66927;48.812;9.118;2023-07-09T10:23:12;29.00;78.70
12827;DHT22;66927;48.812;9.118;2023-07-09T10:31:17;29.30;78.40
12827;DHT22;66927;48.812;9.118;2023-07-09T10:39:42;29.50;73.10
12827;DHT22;66927;48.812;9.118;2023-07-09T10:45:29;29.70;72.80
12827;DHT22;66927;48.812;9.118;2023-07-09T10:48:02;29.70;72.70
12827;DHT22;66927;48.812;9.118;2023-07-09T10:50:41;29.70;71.60
12827;DHT22;66927;48.812;9.118;2023-07-09T10:53:14;29.70;72.20
12827;DHT22;66927;48.812;9.118;2023-07-09T11:00:57;29.90;72.00
12827;DHT22;66927;48.812;9.118;2023-07-09T11:03:37;30.00;70.10
12827;DHT22;66927;48.812;9.118;2023-07-09T11:06:11;30.20;68.90
12827;DHT22;66927;48.812;9.118;2023-07-09T11:08:40;30.20;67.40
12827;DHT22;66927;48.812;9.118;2023-07-09T11:14:02;30.30;69.10
12827;DHT22;66927;48.812;9.118;2023-07-09T11:16:38;30.40;68.90
12827;DHT22;66927;48.812;9.118;2023-07-09T11:19:05;30.50;66.80
12827;DHT22;66927;48.812;9.118;2023-07-09T11:21:45;30.50;66.20
12827;DHT22;66927;48.812;9.118;2023-07-09T11:24:36;30.50;67.30
12827;DHT22;66927;48.812;9.118;2023-07-09T11:27:21;30.50;67.10
12827;DHT22;66927;48.812;9.118;2023-07-09T11:30:01;30.80;65.50
12827;DHT22;66927;48.812;9.118;2023-07-09T11:32:29;30.90;62.70
12827;DHT22;66927;48.812;9.118;2023-07-09T11:35:07;30.90;63.90
12827;DHT22;66927;48.812;9.118;2023-07-09T11:37:44;30.90;62.80
12827;DHT22;66927;48.812;9.118;2023-07-09T11:40:12;31.00;63.40
12827;DHT22;66927;48.812;9.118;2023-07-09T11:42:58;31.00;64.00
12827;DHT22;66927;48.812;9.118;2023-07-09T11:45:33;31.00;64.90
12827;DHT22;66927;48.812;9.118;2023-07-09T11:50:51;31.30;64.10
12827;DHT22;66927;48.812;9.118;2023-07-09T11:53:43;31.40;62.60
12827;DHT22;66927;48.812;9.118;2023-07-09T11:56:11;31.50;61.10
12827;DHT22;66927;48.812;9.118;2023-07-09T11:58:36;31.60;60.60
12827;DHT22;66927;48.812;9.118;2023-07-09T12:01:16;31.70;61.80
12827;DHT22;66927;48.812;9.118;2023-07-09T12:03:44;31.70;59.70
12827;DHT22;66927;48.812;9.118;2023-07-09T12:06:26;31.70;61.40
12827;DHT22;66927;48.812;9.118;2023-07-09T12:08:53;31.80;59.50
12827;DHT22;66927;48.812;9.118;2023-07-09T12:11:28;31.80;58.00
12827;DHT22;66927;48.812;9.118;2023-07-09T12:14:10;31.80;58.50
12827;DHT22;66927;48.812;9.118;2023-07-09T12:16:41;31.90;59.10
12827;DHT22;66927;48.812;9.118;2023-07-09T12:19:15;31.90;59.60
12827;DHT22;66927;48.812;9.118;2023-07-09T12:21:44;31.90;59.50
12827;DHT22;66927;48.812;9.118;2023-07-09T12:24:25;31.90;58.20
12827;DHT22;66927;48.812;9.118;2023-07-09T12:26:56;32.00;57.60
12827;DHT22;66927;48.812;9.118;2023-07-09T12:29:28;32.00;57.60
12827;DHT22;66927;48.812;9.118;2023-07-09T12:31:57;32.10;57.80
12827;DHT22;66927;48.812;9.118;2023-07-09T12:34:24;32.10;57.00
12827;DHT22;66927;48.812;9.118;2023-07-09T12:36:52;32.20;57.40
12827;DHT22;66927;48.812;9.118;2023-07-09T12:39:28;32.30;57.60
12827;DHT22;66927;48.812;9.118;2023-07-09T12:42:00;32.30;57.80
12827;DHT22;66927;48.812;9.118;2023-07-09T12:44:31;32.40;57.60
12827;DHT22;66927;48.812;9.118;2023-07-09T12:46:59;32.40;56.70
12827;DHT22;66927;48.812;9.118;2023-07-09T12:49:27;32.50;55.90
12827;DHT22;66927;48.812;9.118;2023-07-09T12:51:55;32.40;57.10
12827;DHT22;66927;48.812;9.118;2023-07-09T12:54:21;32.40;57.40
12827;DHT22;66927;48.812;9.118;2023-07-09T12:56:53;32.50;57.30
12827;DHT22;66927;48.812;9.118;2023-07-09T12:59:25;32.50;56.40
12827;DHT22;66927;48.812;9.118;2023-07-09T13:01:56;32.60;56.60
12827;DHT22;66927;48.812;9.118;2023-07-09T13:04:33;32.70;57.30
12827;DHT22;66927;48.812;9.118;2023-07-09T13:07:01;32.70;57.30
12827;DHT22;66927;48.812;9.118;2023-07-09T13:09:27;32.80;57.00
12827;DHT22;66927;48.812;9.118;2023-07-09T13:11:57;32.80;56.70
12827;DHT22;66927;48.812;9.118;2023-07-09T13:14:26;32.80;56.70
12827;DHT22;66927;48.812;9.118;2023-07-09T13:16:52;32.90;57.30
12827;DHT22;66927;48.812;9.118;2023-07-09T13:19:26;32.90;57.10
12827;DHT22;66927;48.812;9.118;2023-07-09T13:21:52;32.80;57.20
12827;DHT22;66927;48.812;9.118;2023-07-09T13:24:24;32.70;56.90
12827;DHT22;66927;48.812;9.118;2023-07-09T13:26:51;32.70;55.70
12827;DHT22;66927;48.812;9.118;2023-07-09T13:29:18;32.70;57.30
12827;DHT22;66927;48.812;9.118;2023-07-09T13:31:47;32.70;56.20
12827;DHT22;66927;48.812;9.118;2023-07-09T13:34:20;32.70;57.10
12827;DHT22;66927;48.812;9.118;2023-07-09T13:36:47;32.80;57.70
12827;DHT22;66927;48.812;9.118;2023-07-09T13:39:14;32.80;58.00
12827;DHT22;66927;48.812;9.118;2023-07-09T13:41:43;32.90;57.90
12827;DHT22;66927;48.812;9.118;2023-07-09T13:44:18;32.90;58.00
12827;DHT22;66927;48.812;9.118;2023-07-09T13:46:45;32.90;58.40
12827;DHT22;66927;48.812;9.118;2023-07-09T13:49:15;32.90;57.40
12827;DHT22;66927;48.812;9.118;2023-07-09T13:51:44;32.90;57.60
12827;DHT22;66927;48.812;9.118;2023-07-09T13:54:20;32.80;57.80
12827;DHT22;66927;48.812;9.118;2023-07-09T13:56:50;32.80;58.10
12827;DHT22;66927;48.812;9.118;2023-07-09T13:59:22;32.90;57.50
12827;DHT22;66927;48.812;9.118;2023-07-09T14:01:50;33.00;57.50
12827;DHT22;66927;48.812;9.118;2023-07-09T14:04:18;32.90;57.30
12827;DHT22;66927;48.812;9.118;2023-07-09T14:06:44;32.90;57.60
12827;DHT22;66927;48.812;9.118;2023-07-09T14:09:12;33.00;57.70
12827;DHT22;66927;48.812;9.118;2023-07-09T14:11:42;32.90;58.00
12827;DHT22;66927;48.812;9.118;2023-07-09T14:16:43;32.90;57.80
12827;DHT22;66927;48.812;9.118;2023-07-09T14:19:20;33.00;57.70
12827;DHT22;66927;48.812;9.118;2023-07-09T14:21:47;33.00;57.90
12827;DHT22;66927;48.812;9.118;2023-07-09T14:24:30;32.90;57.90
12827;DHT22;66927;48.812;9.118;2023-07-09T14:26:57;32.90;58.20
12827;DHT22;66927;48.812;9.118;2023-07-09T14:29:24;32.80;57.90
12827;DHT22;66927;48.812;9.118;2023-07-09T14:31:51;32.80;57.80
12827;DHT22;66927;48.812;9.118;2023-07-09T14:34:24;32.80;57.90
12827;DHT22;66927;48.812;9.118;2023-07-09T14:36:58;32.90;58.20
12827;DHT22;66927;48.812;9.118;2023-07-09T14:39:27;32.90;58.30
12827;DHT22;66927;48.812;9.118;2023-07-09T14:41:54;33.00;58.40
12827;DHT22;66927;48.812;9.118;2023-07-09T14:44:27;33.00;57.90
12827;DHT22;66927;48.812;9.118;2023-07-09T14:46:56;33.00;57.80
12827;DHT22;66927;48.812;9.118;2023-07-09T14:49:22;32.90;58.20
12827;DHT22;66927;48.812;9.118;2023-07-09T14:51:49;32.90;58.10
12827;DHT22;66927;48.812;9.118;2023-07-09T14:54:28;32.80;58.10
12827;DHT22;66927;48.812;9.118;2023-07-09T14:56:56;32.80;57.20
12827;DHT22;66927;48.812;9.118;2023-07-09T14:59:23;32.70;57.70
12827;DHT22;66927;48.812;9.118;2023-07-09T15:01:49;32.70;57.80
12827;DHT22;66927;48.812;9.118;2023-07-09T15:06:49;32.60;57.50
12827;DHT22;66927;48.812;9.118;2023-07-09T15:09:14;32.60;60.30
12827;DHT22;66927;48.812;9.118;2023-07-09T15:11:43;32.60;66.60
12827;DHT22;66927;48.812;9.118;2023-07-09T15:14:11;32.50;74.60
12827;DHT22;66927;48.812;9.118;2023-07-09T15:16:37;32.30;61.60
12827;DHT22;66927;48.812;9.118;2023-07-09T15:19:12;32.20;70.20
12827;DHT22;66927;48.812;9.118;2023-07-09T15:21:38;32.10;73.20
12827;DHT22;66927;48.812;9.118;2023-07-09T15:24:04;32.00;71.70
12827;DHT22;66927;48.812;9.118;2023-07-09T15:26:30;32.00;64.00
12827;DHT22;66927;48.812;9.118;2023-07-09T15:28:57;31.90;70.80
12827;DHT22;66927;48.812;9.118;2023-07-09T15:31:22;31.80;71.70
12827;DHT22;66927;48.812;9.118;2023-07-09T15:33:49;31.80;72.80
12827;DHT22;66927;48.812;9.118;2023-07-09T15:36:14;31.60;73.90
12827;DHT22;66927;48.812;9.118;2023-07-09T15:38:40;31.60;72.30
12827;DHT22;66927;48.812;9.118;2023-07-09T15:41:14;31.50;76.60
12827;DHT22;66927;48.812;9.118;2023-07-09T15:43:42;31.40;73.20
12827;DHT22;66927;48.812;9.118;2023-07-09T15:46:21;31.30;76.00
12827;DHT22;66927;48.812;9.118;2023-07-09T15:48:48;31.30;67.70
12827;DHT22;66927;48.812;9.118;2023-07-09T15:51:15;31.30;72.90
12827;DHT22;66927;48.812;9.118;2023-07-09T15:53:42;31.20;75.80
12827;DHT22;66927;48.812;9.118;2023-07-09T15:56:25;31.20;72.90
12827;DHT22;66927;48.812;9.118;2023-07-09T15:58:54;31.10;72.90
12827;DHT22;66927;48.812;9.118;2023-07-09T16:01:20;31.10;73.90
12827;DHT22;66927;48.812;9.118;2023-07-09T16:03:51;31.10;73.70
12827;DHT22;66927;48.812;9.118;2023-07-09T16:06:18;31.10;72.00
12827;DHT22;66927;48.812;9.118;2023-07-09T16:08:44;31.10;73.60
12827;DHT22;66927;48.812;9.118;2023-07-09T16:11:21;31.10;69.70
12827;DHT22;66927;48.812;9.118;2023-07-09T16:13:49;31.10;64.10
12827;DHT22;66927;48.812;9.118;2023-07-09T16:16:16;31.20;63.00
12827;DHT22;66927;48.812;9.118;2023-07-09T16:18:43;31.30;71.60
12827;DHT22;66927;48.812;9.118;2023-07-09T16:21:30;31.30;68.90
12827;DHT22;66927;48.812;9.118;2023-07-09T16:23:58;31.30;62.60
12827;DHT22;66927;48.812;9.118;2023-07-09T16:26:26;31.30;65.90
12827;DHT22;66927;48.812;9.118;2023-07-09T16:28:52;31.30;67.00
12827;DHT22;66927;48.812;9.118;2023-07-09T16:31:18;31.40;66.40